sensor_id;sensor_type;location;lat;lon;timestamp;temperature;humidity
6930;DHT22;3504;52.616;13.238;2023-03-14T00:00:24;12.29;77.90
6930;DHT22;3504;52.616;13.238;2023-03-14T00:05:25;12.22;77.79
6930;DHT22;3504;52.616;13.238;2023-03-14T00:10:26;12.19;77.62
6930;DHT22;3504;52.616;13.238;2023-03-14T00:15:26;12.11;77.51
6930;DHT22;3504;52.616;13.238;2023-03-14T00:20:27;12.08;77.39
6930;DHT22;3504;52.616;13.238;2023-03-14T00:25:28;12.01;77.31
6930;DHT22;3504;52.616;13.238;2023-03-14T00:30:28;11.95;77.32
6930;DHT22;3504;52.616;13.238;2023-03-14T00:35:29;11.97;77.21
6930;DHT22;3504;52.616;13.238;2023-03-14T00:40:29;11.89;77.15
6930;DHT22;3504;52.616;13.238;2023-03-14T00:45:30;11.84;77.32
6930;DHT22;3504;52.616;13.238;2023-03-14T00:50:30;11.81;77.41
6930;DHT22;3504;52.616;13.238;2023-03-14T00:55:31;11.77;77.52
6930;DHT22;3504;52.616;13.238;2023-03-14T01:00:32;11.73;77.59
6930;DHT22;3504;52.616;13.238;2023-03-14T01:05:33;11.68;77.83
6930;DHT22;3504;52.616;13.238;2023-03-14T01:10:38;11.66;77.85
6930;DHT22;3504;52.616;13.238;2023-03-14T01:15:39;11.60;77.98
6930;DHT22;3504;52.616;13.238;2023-03-14T01:20:40;11.54;78.13
6930;DHT22;3504;52.616;13.238;2023-03-14T01:25:41;11.54;78.29
6930;DHT22;3504;52.616;13.238;2023-03-14T01:30:42;11.50;78.33
6930;DHT22;3504;52.616;13.238;2023-03-14T01:35:42;11.50;78.43
6930;DHT22;3504;52.616;13.238;2023-03-14T01:40:44;11.47;78.47
6930;DHT22;3504;52.616;13.238;2023-03-14T01:51:11;11.46;78.63
6930;DHT22;3504;52.616;13.238;2023-03-14T01:56:15;11.46;78.61
6930;DHT22;3504;52.616;13.238;2023-03-14T02:01:20;11.46;78.65
6930;DHT22;3504;52.616;13.238;2023-03-14T02:06:26;11.43;78.70
6930;DHT22;3504;52.616;13.238;2023-03-14T02:11:32;11.46;78.62
6930;DHT22;3504;52.616;13.238;2023-03-14T02:16:40;11.44;78.69
6930;DHT22;3504;52.616;13.238;2023-03-14T02:22:09;11.43;78.63
6930;DHT22;3504;52.616;13.238;2023-03-14T02:27:20;11.40;78.75
6930;DHT22;3504;52.616;13.238;2023-03-14T02:32:22;11.39;78.72
6930;DHT22;3504;52.616;13.238;2023-03-14T02:37:30;11.35;78.84
6930;DHT22;3504;52.616;13.238;2023-03-14T02:42:33;11.37;78.78
6930;DHT22;3504;52.616;13.238;2023-03-14T02:47:34;11.39;78.59
6930;DHT22;3504;52.616;13.238;2023-03-14T02:52:37;11.43;78.52
6930;DHT22;3504;52.616;13.238;2023-03-14T02:57:38;11.40;78.35
6930;DHT22;3504;52.616;13.238;2023-03-14T03:02:38;11.37;78.28
6930;DHT22;3504;52.616;13.238;2023-03-14T03:07:39;11.36;78.27
6930;DHT22;3504;52.616;13.238;2023-03-14T03:12:40;11.30;78.29
6930;DHT22;3504;52.616;13.238;2023-03-14T03:17:40;11.29;78.35
6930;DHT22;3504;52.616;13.238;2023-03-14T03:22:41;11.22;78.32
6930;DHT22;3504;52.616;13.238;2023-03-14T03:27:43;11.20;78.46
6930;DHT22;3504;52.616;13.238;2023-03-14T03:32:44;11.17;78.41
6930;DHT22;3504;52.616;13.238;2023-03-14T03:37:46;11.13;78.41
6930;DHT22;3504;52.616;13.238;2023-03-14T03:42:46;11.09;78.45
6930;DHT22;3504;52.616;13.238;2023-03-14T03:47:48;11.06;78.42
6930;DHT22;3504;52.616;13.238;2023-03-14T03:52:48;11.07;78.32
6930;DHT22;3504;52.616;13.238;2023-03-14T03:57:49;11.02;78.17
6930;DHT22;3504;52.616;13.238;2023-03-14T04:02:49;11.06;77.93
6930;DHT22;3504;52.616;13.238;2023-03-14T04:07:51;11.03;77.91
6930;DHT22;3504;52.616;13.238;2023-03-14T04:12:57;11.00;77.67
6930;DHT22;3504;52.616;13.238;2023-03-14T04:18:01;11.00;77.53
6930;DHT22;3504;52.616;13.238;2023-03-14T04:23:02;10.99;77.57
6930;DHT22;3504;52.616;13.238;2023-03-14T04:28:03;10.96;77.41
6930;DHT22;3504;52.616;13.238;2023-03-14T04:33:05;10.99;77.23
6930;DHT22;3504;52.616;13.238;2023-03-14T04:38:09;10.99;76.91
6930;DHT22;3504;52.616;13.238;2023-03-14T04:43:11;11.00;76.84
6930;DHT22;3504;52.616;13.238;2023-03-14T04:48:16;10.99;76.76
6930;DHT22;3504;52.616;13.238;2023-03-14T04:53:18;11.00;76.80
6930;DHT22;3504;52.616;13.238;2023-03-14T04:58:20;10.96;76.61
6930;DHT22;3504;52.616;13.238;2023-03-14T05:03:23;10.95;76.73
6930;DHT22;3504;52.616;13.238;2023-03-14T05:08:38;10.92;76.66
6930;DHT22;3504;52.616;13.238;2023-03-14T05:13:53;10.92;76.49
6930;DHT22;3504;52.616;13.238;2023-03-14T05:19:02;10.92;76.42
6930;DHT22;3504;52.616;13.238;2023-03-14T05:24:17;10.93;76.30
6930;DHT22;3504;52.616;13.238;2023-03-14T05:29:53;10.95;76.06
6930;DHT22;3504;52.616;13.238;2023-03-14T05:35:29;10.95;76.16
6930;DHT22;3504;52.616;13.238;2023-03-14T05:40:39;10.93;76.11
6930;DHT22;3504;52.616;13.238;2023-03-14T05:45:59;10.95;75.82
6930;DHT22;3504;52.616;13.238;2023-03-14T05:51:26;10.95;75.77
6930;DHT22;3504;52.616;13.238;2023-03-14T05:56:49;10.96;75.35
6930;DHT22;3504;52.616;13.238;2023-03-14T06:02:22;10.96;74.99
6930;DHT22;3504;52.616;13.238;2023-03-14T06:07:32;10.96;74.91
6930;DHT22;3504;52.616;13.238;2023-03-14T06:12:33;11.00;74.74
6930;DHT22;3504;52.616;13.238;2023-03-14T06:17:33;11.03;74.29
6930;DHT22;3504;52.616;13.238;2023-03-14T06:22:42;11.07;74.39
6930;DHT22;3504;52.616;13.238;2023-03-14T06:27:45;11.13;74.08
6930;DHT22;3504;52.616;13.238;2023-03-14T06:32:45;11.22;73.65
6930;DHT22;3504;52.616;13.238;2023-03-14T06:37:48;11.27;73.54
6930;DHT22;3504;52.616;13.238;2023-03-14T06:42:49;11.33;73.24
6930;DHT22;3504;52.616;13.238;2023-03-14T06:47:51;11.40;72.57
6930;DHT22;3504;52.616;13.238;2023-03-14T06:52:58;11.47;72.60
6930;DHT22;3504;52.616;13.238;2023-03-14T06:58:00;11.54;71.81
6930;DHT22;3504;52.616;13.238;2023-03-14T07:03:01;11.73;72.06
6930;DHT22;3504;52.616;13.238;2023-03-14T07:08:08;11.87;71.38
6930;DHT22;3504;52.616;13.238;2023-03-14T07:13:09;11.84;71.16
6930;DHT22;3504;52.616;13.238;2023-03-14T07:18:19;11.78;71.08
6930;DHT22;3504;52.616;13.238;2023-03-14T07:23:20;11.79;71.43
6930;DHT22;3504;52.616;13.238;2023-03-14T07:28:23;11.81;71.15
6930;DHT22;3504;52.616;13.238;2023-03-14T07:33:29;11.92;71.23
6930;DHT22;3504;52.616;13.238;2023-03-14T07:38:31;11.92;70.89
6930;DHT22;3504;52.616;13.238;2023-03-14T07:43:50;11.94;71.04
6930;DHT22;3504;52.616;13.238;2023-03-14T07:48:51;12.12;71.07
6930;DHT22;3504;52.616;13.238;2023-03-14T07:53:51;12.42;70.51
6930;DHT22;3504;52.616;13.238;2023-03-14T07:58:52;12.66;69.34
6930;DHT22;3504;52.616;13.238;2023-03-14T08:03:52;12.93;69.18
6930;DHT22;3504;52.616;13.238;2023-03-14T08:08:53;13.00;68.73
6930;DHT22;3504;52.616;13.238;2023-03-14T08:13:54;13.00;68.65
6930;DHT22;3504;52.616;13.238;2023-03-14T08:18:54;12.90;68.37
6930;DHT22;3504;52.616;13.238;2023-03-14T08:23:56;12.85;68.94
6930;DHT22;3504;52.616;13.238;2023-03-14T08:28:57;12.79;69.10
6930;DHT22;3504;52.616;13.238;2023-03-14T08:34:01;12.69;69.50
6930;DHT22;3504;52.616;13.238;2023-03-14T08:39:02;12.63;70.85
6930;DHT22;3504;52.616;13.238;2023-03-14T08:44:04;12.59;70.67
6930;DHT22;3504;52.616;13.238;2023-03-14T08:49:04;12.70;70.80
6930;DHT22;3504;52.616;13.238;2023-03-14T08:54:05;12.83;70.15
6930;DHT22;3504;52.616;13.238;2023-03-14T08:59:05;12.99;69.72
6930;DHT22;3504;52.616;13.238;2023-03-14T09:04:06;13.15;68.70
6930;DHT22;3504;52.616;13.238;2023-03-14T09:09:07;13.32;68.97
6930;DHT22;3504;52.616;13.238;2023-03-14T09:14:07;13.55;68.04
6930;DHT22;3504;52.616;13.238;2023-03-14T09:19:08;14.07;67.55
6930;DHT22;3504;52.616;13.238;2023-03-14T09:24:08;14.48;64.83
6930;DHT22;3504;52.616;13.238;2023-03-14T09:29:09;14.64;64.47
6930;DHT22;3504;52.616;13.238;2023-03-14T09:34:09;14.67;62.66
6930;DHT22;3504;52.616;13.238;2023-03-14T09:39:11;14.65;62.65
6930;DHT22;3504;52.616;13.238;2023-03-14T09:44:18;14.44;61.62
6930;DHT22;3504;52.616;13.238;2023-03-14T09:54:42;14.34;63.12
6930;DHT22;3504;52.616;13.238;2023-03-14T09:59:45;14.44;63.36
6930;DHT22;3504;52.616;13.238;2023-03-14T10:04:49;14.38;62.97
6930;DHT22;3504;52.616;13.238;2023-03-14T10:09:51;14.31;62.54
6930;DHT22;3504;52.616;13.238;2023-03-14T10:14:52;14.24;62.33
6930;DHT22;3504;52.616;13.238;2023-03-14T10:19:59;14.06;62.21
6930;DHT22;3504;52.616;13.238;2023-03-14T10:25:04;13.90;61.77
6930;DHT22;3504;52.616;13.238;2023-03-14T10:30:08;13.76;61.15
6930;DHT22;3504;52.616;13.238;2023-03-14T10:35:26;13.71;61.50
6930;DHT22;3504;52.616;13.238;2023-03-14T10:40:37;13.61;61.39
6930;DHT22;3504;52.616;13.238;2023-03-14T10:45:41;13.61;61.46
6930;DHT22;3504;52.616;13.238;2023-03-14T10:56:06;13.61;63.43
6930;DHT22;3504;52.616;13.238;2023-03-14T11:01:44;13.49;63.06
6930;DHT22;3504;52.616;13.238;2023-03-14T11:07:08;13.46;63.22
6930;DHT22;3504;52.616;13.238;2023-03-14T11:13:00;13.42;63.88
6930;DHT22;3504;52.616;13.238;2023-03-14T11:18:18;13.39;63.18
6930;DHT22;3504;52.616;13.238;2023-03-14T11:24:02;13.35;63.55
6930;DHT22;3504;52.616;13.238;2023-03-14T11:29:36;13.42;63.78
6930;DHT22;3504;52.616;13.238;2023-03-14T11:34:53;13.44;63.17
6930;DHT22;3504;52.616;13.238;2023-03-14T11:40:10;13.39;63.41
6930;DHT22;3504;52.616;13.238;2023-03-14T11:45:27;13.42;63.28
6930;DHT22;3504;52.616;13.238;2023-03-14T11:50:30;13.41;63.48
6930;DHT22;3504;52.616;13.238;2023-03-14T11:55:34;13.42;63.93
6930;DHT22;3504;52.616;13.238;2023-03-14T12:00:38;13.39;67.62
6930;DHT22;3504;52.616;13.238;2023-03-14T12:11:08;12.88;72.93
6930;DHT22;3504;52.616;13.238;2023-03-14T12:21:44;13.08;73.91
6930;DHT22;3504;52.616;13.238;2023-03-14T12:26:56;13.45;72.17
6930;DHT22;3504;52.616;13.238;2023-03-14T12:48:00;14.00;66.48
6930;DHT22;3504;52.616;13.238;2023-03-14T12:53:31;13.90;66.11
6930;DHT22;3504;52.616;13.238;2023-03-14T12:58:42;13.78;67.55
6930;DHT22;3504;52.616;13.238;2023-03-14T13:03:54;13.87;67.13
6930;DHT22;3504;52.616;13.238;2023-03-14T13:08:55;13.99;67.22
6930;DHT22;3504;52.616;13.238;2023-03-14T13:13:58;14.00;66.61
6930;DHT22;3504;52.616;13.238;2023-03-14T13:19:19;14.36;67.21
6930;DHT22;3504;52.616;13.238;2023-03-14T13:24:25;14.50;66.00
6930;DHT22;3504;52.616;13.238;2023-03-14T13:29:31;14.67;65.08
6930;DHT22;3504;52.616;13.238;2023-03-14T13:34:33;14.82;64.63
6930;DHT22;3504;52.616;13.238;2023-03-14T13:39:34;14.88;63.71
6930;DHT22;3504;52.616;13.238;2023-03-14T13:44:39;14.82;63.46
6930;DHT22;3504;52.616;13.238;2023-03-14T13:49:40;14.77;63.83
6930;DHT22;3504;52.616;13.238;2023-03-14T13:54:41;14.89;63.45
6930;DHT22;3504;52.616;13.238;2023-03-14T13:59:41;14.96;63.30
6930;DHT22;3504;52.616;13.238;2023-03-14T14:04:42;14.96;62.30
6930;DHT22;3504;52.616;13.238;2023-03-14T14:09:47;14.89;62.30
6930;DHT22;3504;52.616;13.238;2023-03-14T14:14:59;14.93;61.28
6930;DHT22;3504;52.616;13.238;2023-03-14T14:20:05;14.72;60.61
6930;DHT22;3504;52.616;13.238;2023-03-14T14:25:06;14.68;61.28
6930;DHT22;3504;52.616;13.238;2023-03-14T14:30:28;14.51;61.43
6930;DHT22;3504;52.616;13.238;2023-03-14T14:35:35;14.34;62.94
6930;DHT22;3504;52.616;13.238;2023-03-14T14:40:45;13.79;66.06
6930;DHT22;3504;52.616;13.238;2023-03-14T14:45:49;13.38;71.23
6930;DHT22;3504;52.616;13.238;2023-03-14T14:51:03;13.20;73.22
6930;DHT22;3504;52.616;13.238;2023-03-14T14:56:28;13.01;73.94
6930;DHT22;3504;52.616;13.238;2023-03-14T15:01:37;12.94;73.70
6930;DHT22;3504;52.616;13.238;2023-03-14T15:06:38;11.48;71.29
6930;DHT22;3504;52.616;13.238;2023-03-14T15:11:38;9.31;74.88
6930;DHT22;3504;52.616;13.238;2023-03-14T15:16:40;8.40;76.90
6930;DHT22;3504;52.616;13.238;2023-03-14T15:21:41;7.77;78.95
6930;DHT22;3504;52.616;13.238;2023-03-14T15:26:41;7.40;78.35
6930;DHT22;3504;52.616;13.238;2023-03-14T15:31:44;6.92;79.00
6930;DHT22;3504;52.616;13.238;2023-03-14T15:36:45;6.47;77.48
6930;DHT22;3504;52.616;13.238;2023-03-14T15:41:45;6.10;79.31
6930;DHT22;3504;52.616;13.238;2023-03-14T15:46:46;5.67;79.08
6930;DHT22;3504;52.616;13.238;2023-03-14T15:51:46;5.44;78.63
6930;DHT22;3504;52.616;13.238;2023-03-14T15:56:47;5.16;79.48
6930;DHT22;3504;52.616;13.238;2023-03-14T16:01:47;4.83;80.07
6930;DHT22;3504;52.616;13.238;2023-03-14T16:06:48;4.34;79.77
6930;DHT22;3504;52.616;13.238;2023-03-14T16:11:48;4.20;79.98
6930;DHT22;3504;52.616;13.238;2023-03-14T16:16:49;3.98;79.84
6930;DHT22;3504;52.616;13.238;2023-03-14T16:21:52;3.90;79.82
6930;DHT22;3504;52.616;13.238;2023-03-14T16:26:52;3.73;79.22
6930;DHT22;3504;52.616;13.238;2023-03-14T16:31:53;3.63;79.79
6930;DHT22;3504;52.616;13.238;2023-03-14T16:36:54;3.76;81.05
6930;DHT22;3504;52.616;13.238;2023-03-14T16:41:55;3.77;80.11
6930;DHT22;3504;52.616;13.238;2023-03-14T16:46:55;3.70;80.76
6930;DHT22;3504;52.616;13.238;2023-03-14T16:51:56;3.73;80.59
6930;DHT22;3504;52.616;13.238;2023-03-14T16:56:56;3.62;81.30
6930;DHT22;3504;52.616;13.238;2023-03-14T17:01:57;3.53;81.28
6930;DHT22;3504;52.616;13.238;2023-03-14T17:06:57;3.62;82.05
6930;DHT22;3504;52.616;13.238;2023-03-14T17:11:58;3.66;81.82
6930;DHT22;3504;52.616;13.238;2023-03-14T17:16:58;3.66;81.53
6930;DHT22;3504;52.616;13.238;2023-03-14T17:21:59;3.66;82.02
6930;DHT22;3504;52.616;13.238;2023-03-14T17:26:59;3.70;82.23
6930;DHT22;3504;52.616;13.238;2023-03-14T17:32:00;3.74;82.11
6930;DHT22;3504;52.616;13.238;2023-03-14T17:37:00;3.76;82.44
6930;DHT22;3504;52.616;13.238;2023-03-14T17:42:01;3.76;82.69
6930;DHT22;3504;52.616;13.238;2023-03-14T17:47:02;3.83;82.94
6930;DHT22;3504;52.616;13.238;2023-03-14T17:52:02;3.86;83.37
6930;DHT22;3504;52.616;13.238;2023-03-14T17:57:03;3.90;83.26
6930;DHT22;3504;52.616;13.238;2023-03-14T18:02:04;3.94;83.34
6930;DHT22;3504;52.616;13.238;2023-03-14T18:07:04;3.97;83.30
6930;DHT22;3504;52.616;13.238;2023-03-14T18:12:05;4.08;83.28
6930;DHT22;3504;52.616;13.238;2023-03-14T18:17:06;4.11;83.61
6930;DHT22;3504;52.616;13.238;2023-03-14T18:22:10;4.11;83.25
6930;DHT22;3504;52.616;13.238;2023-03-14T18:27:12;4.12;83.22
6930;DHT22;3504;52.616;13.238;2023-03-14T18:32:15;4.18;83.50
6930;DHT22;3504;52.616;13.238;2023-03-14T18:37:16;4.20;83.97
6930;DHT22;3504;52.616;13.238;2023-03-14T18:42:16;4.15;83.80
6930;DHT22;3504;52.616;13.238;2023-03-14T18:47:17;4.22;83.93
6930;DHT22;3504;52.616;13.238;2023-03-14T18:52:17;4.24;83.53
6930;DHT22;3504;52.616;13.238;2023-03-14T18:57:18;4.21;83.40
6930;DHT22;3504;52.616;13.238;2023-03-14T19:02:18;4.25;83.87
6930;DHT22;3504;52.616;13.238;2023-03-14T19:07:21;4.21;83.13
6930;DHT22;3504;52.616;13.238;2023-03-14T19:12:22;4.21;83.69
6930;DHT22;3504;52.616;13.238;2023-03-14T19:17:23;4.17;83.21
6930;DHT22;3504;52.616;13.238;2023-03-14T19:22:23;4.17;83.51
6930;DHT22;3504;52.616;13.238;2023-03-14T19:27:24;4.20;83.53
6930;DHT22;3504;52.616;13.238;2023-03-14T19:32:24;4.17;83.54
6930;DHT22;3504;52.616;13.238;2023-03-14T19:37:25;4.12;83.16
6930;DHT22;3504;52.616;13.238;2023-03-14T19:42:26;4.08;82.89
6930;DHT22;3504;52.616;13.238;2023-03-14T19:47:27;3.97;82.67
6930;DHT22;3504;52.616;13.238;2023-03-14T19:52:28;3.90;82.67
6930;DHT22;3504;52.616;13.238;2023-03-14T19:57:29;3.86;82.23
6930;DHT22;3504;52.616;13.238;2023-03-14T20:02:30;3.77;81.74
6930;DHT22;3504;52.616;13.238;2023-03-14T20:07:30;3.73;81.63
6930;DHT22;3504;52.616;13.238;2023-03-14T20:12:31;3.64;81.35
6930;DHT22;3504;52.616;13.238;2023-03-14T20:17:33;3.52;80.94
6930;DHT22;3504;52.616;13.238;2023-03-14T20:22:37;3.48;81.27
6930;DHT22;3504;52.616;13.238;2023-03-14T20:27:39;3.45;81.39
6930;DHT22;3504;52.616;13.238;2023-03-14T20:32:40;3.33;80.99
6930;DHT22;3504;52.616;13.238;2023-03-14T20:37:44;3.30;80.76
6930;DHT22;3504;52.616;13.238;2023-03-14T20:42:44;3.29;80.27
6930;DHT22;3504;52.616;13.238;2023-03-14T20:47:45;3.22;79.72
6930;DHT22;3504;52.616;13.238;2023-03-14T20:52:45;3.20;79.84
6930;DHT22;3504;52.616;13.238;2023-03-14T20:57:46;3.16;78.79
6930;DHT22;3504;52.616;13.238;2023-03-14T21:02:46;3.05;78.97
6930;DHT22;3504;52.616;13.238;2023-03-14T21:07:47;3.01;78.01
6930;DHT22;3504;52.616;13.238;2023-03-14T21:12:47;2.95;78.92
6930;DHT22;3504;52.616;13.238;2023-03-14T21:17:48;2.97;78.23
6930;DHT22;3504;52.616;13.238;2023-03-14T21:22:48;2.87;79.15
6930;DHT22;3504;52.616;13.238;2023-03-14T21:27:49;2.84;78.03
6930;DHT22;3504;52.616;13.238;2023-03-14T21:32:49;2.77;78.49
6930;DHT22;3504;52.616;13.238;2023-03-14T21:37:50;2.77;78.31
6930;DHT22;3504;52.616;13.238;2023-03-14T21:42:52;2.77;78.84
6930;DHT22;3504;52.616;13.238;2023-03-14T21:47:55;2.73;78.44
6930;DHT22;3504;52.616;13.238;2023-03-14T21:52:55;2.68;77.93
6930;DHT22;3504;52.616;13.238;2023-03-14T21:57:56;2.71;78.40
6930;DHT22;3504;52.616;13.238;2023-03-14T22:02:57;2.60;78.50
6930;DHT22;3504;52.616;13.238;2023-03-14T22:07:57;2.60;78.07
6930;DHT22;3504;52.616;13.238;2023-03-14T22:12:58;2.52;78.04
6930;DHT22;3504;52.616;13.238;2023-03-14T22:17:58;2.50;78.32
6930;DHT22;3504;52.616;13.238;2023-03-14T22:22:59;2.49;78.47
6930;DHT22;3504;52.616;13.238;2023-03-14T22:27:59;2.44;78.11
6930;DHT22;3504;52.616;13.238;2023-03-14T22:33:00;2.43;78.04
6930;DHT22;3504;52.616;13.238;2023-03-14T22:38:00;2.40;78.14
6930;DHT22;3504;52.616;13.238;2023-03-14T22:43:01;2.39;78.04
6930;DHT22;3504;52.616;13.238;2023-03-14T22:48:01;2.39;77.71
6930;DHT22;3504;52.616;13.238;2023-03-14T22:53:02;2.36;78.04
6930;DHT22;3504;52.616;13.238;2023-03-14T22:58:02;2.37;78.02
6930;DHT22;3504;52.616;13.238;2023-03-14T23:03:03;2.36;78.01
6930;DHT22;3504;52.616;13.238;2023-03-14T23:08:03;2.33;77.75
6930;DHT22;3504;52.616;13.238;2023-03-14T23:13:05;2.35;77.72
6930;DHT22;3504;52.616;13.238;2023-03-14T23:18:07;2.33;78.01
6930;DHT22;3504;52.616;13.238;2023-03-14T23:23:07;2.26;77.99
6930;DHT22;3504;52.616;13.238;2023-03-14T23:28:08;2.23;77.79
6930;DHT22;3504;52.616;13.238;2023-03-14T23:33:08;2.20;77.96
6930;DHT22;3504;52.616;13.238;2023-03-14T23:38:09;2.16;78.20
6930;DHT22;3504;52.616;13.238;2023-03-14T23:43:10;2.13;78.49
6930;DHT22;3504;52.616;13.238;2023-03-14T23:48:11;2.13;78.45
6930;DHT22;3504;52.616;13.238;2023-03-14T23:53:12;2.16;78.40
6930;DHT22;3504;52.616;13.238;2023-03-14T23:58:12;2.10;77.88
